createdAt,value
2017-05-29T00:00:39.244Z,57.60
2017-05-29T00:03:07.540Z,57.50
2017-05-29T00:05:35.884Z,56.00
2017-05-29T00:08:04.168Z,56.30
2017-05-29T00:10:32.472Z,56.20
2017-05-29T00:13:00.049Z,56.10
2017-05-29T00:15:28.337Z,54.50
2017-05-29T00:17:56.628Z,54.30
2017-05-29T00:20:24.972Z,56.20
2017-05-29T00:22:53.259Z,56.50
2017-05-29T00:25:21.553Z,55.10
2017-05-29T00:27:49.881Z,55.10
2017-05-29T00:30:18.223Z,54.90
2017-05-29T00:32:46.520Z,54.70
2017-05-29T00:35:14.828Z,55.00
2017-05-29T00:37:43.159Z,54.90
2017-05-29T00:40:11.448Z,54.80
2017-05-29T00:42:39.741Z,54.30
2017-05-29T00:45:08.076Z,56.30
2017-05-29T00:47:36.364Z,56.30
2017-05-29T00:50:04.660Z,56.50
2017-05-29T00:52:33.016Z,58.40
2017-05-29T00:55:00.552Z,58.30
2017-05-29T00:57:28.848Z,55.70
2017-05-29T00:59:56.415Z,56.20
2017-05-29T01:02:24.704Z,58.20
2017-05-29T01:04:52.993Z,58.80
2017-05-29T01:07:21.354Z,58.70
2017-05-29T01:09:49.640Z,60.00
2017-05-29T01:12:17.930Z,59.30
2017-05-29T01:14:46.264Z,61.20
2017-05-29T01:17:14.556Z,61.30
2017-05-29T01:19:42.852Z,59.10
2017-05-29T01:22:11.182Z,59.60
2017-05-29T01:24:39.484Z,60.90
2017-05-29T01:27:07.768Z,62.50
2017-05-29T01:29:36.109Z,61.70
2017-05-29T01:32:04.407Z,60.50
2017-05-29T01:34:32.706Z,60.70
2017-05-29T01:37:01.026Z,60.70
2017-05-29T01:39:29.354Z,59.60
2017-05-29T01:41:57.640Z,61.40
2017-05-29T01:44:25.941Z,60.10
2017-05-29T01:46:54.274Z,60.70
2017-05-29T01:49:22.696Z,62.40
2017-05-29T01:51:50.976Z,64.50
2017-05-29T01:54:18.544Z,64.40
2017-05-29T01:56:46.834Z,60.10
2017-05-29T01:59:15.129Z,60.70
2017-05-29T02:01:43.506Z,61.50
2017-05-29T02:04:11.800Z,61.20
2017-05-29T02:06:40.091Z,61.70
2017-05-29T02:09:08.424Z,60.70
2017-05-29T02:11:36.715Z,63.40
2017-05-29T02:14:05.211Z,61.50
2017-05-29T02:16:33.540Z,61.90
2017-05-29T02:19:01.828Z,60.30
2017-05-29T02:21:30.172Z,60.40
2017-05-29T02:23:58.464Z,59.50
2017-05-29T02:26:26.764Z,58.30
2017-05-29T02:28:55.131Z,57.90
2017-05-29T02:31:23.423Z,57.40
2017-05-29T02:33:51.711Z,57.00
2017-05-29T02:36:20.037Z,56.70
2017-05-29T02:38:48.329Z,56.70
2017-05-29T02:41:16.662Z,56.60
2017-05-29T02:43:44.949Z,56.40
2017-05-29T02:46:13.235Z,56.40
2017-05-29T02:48:41.660Z,57.80
2017-05-29T02:51:09.948Z,57.70
2017-05-29T02:53:38.240Z,60.40
2017-05-29T02:56:06.581Z,61.30
2017-05-29T02:58:34.875Z,61.70
2017-05-29T03:01:03.159Z,61.10
2017-05-29T03:03:31.525Z,60.60
2017-05-29T03:05:59.816Z,62.50
2017-05-29T03:08:28.098Z,60.00
2017-05-29T03:10:56.431Z,64.70
2017-05-29T03:13:24.716Z,64.60
2017-05-29T03:15:53.018Z,63.30
2017-05-29T03:18:21.386Z,64.70
2017-05-29T03:20:49.676Z,64.90
2017-05-29T03:23:17.975Z,64.10
2017-05-29T03:25:46.325Z,63.70
2017-05-29T03:28:14.620Z,64.40
2017-05-29T03:30:42.911Z,65.00
2017-05-29T03:33:11.248Z,63.50
2017-05-29T03:35:39.536Z,62.10
2017-05-29T03:38:07.833Z,63.20
2017-05-29T03:40:36.173Z,64.60
2017-05-29T03:43:04.471Z,63.70
2017-05-29T03:45:32.764Z,63.00
2017-05-29T03:48:01.102Z,62.60
2017-05-29T03:50:29.396Z,63.90
2017-05-29T03:52:57.704Z,61.50
2017-05-29T03:55:26.045Z,65.40
2017-05-29T03:57:54.347Z,65.60
2017-05-29T04:00:22.644Z,63.20
2017-05-29T04:02:50.977Z,63.20
2017-05-29T04:05:18.496Z,63.10
2017-05-29T04:07:46.836Z,65.00
2017-05-29T04:10:15.129Z,65.40
2017-05-29T04:12:43.421Z,63.40
2017-05-29T04:15:11.757Z,63.30
2017-05-29T04:17:40.056Z,64.50
2017-05-29T04:20:08.345Z,63.10
2017-05-29T04:22:36.688Z,63.40
2017-05-29T04:25:04.984Z,63.60
2017-05-29T04:27:33.289Z,63.90
2017-05-29T04:30:01.616Z,62.40
2017-05-29T04:32:29.972Z,61.80
2017-05-29T04:34:58.261Z,60.70
2017-05-29T04:37:25.829Z,60.60
2017-05-29T04:39:54.120Z,61.00
2017-05-29T04:42:22.423Z,59.70
2017-05-29T04:44:50.755Z,59.30
2017-05-29T04:47:19.047Z,58.40
2017-05-29T04:49:47.341Z,58.40
2017-05-29T04:52:15.676Z,59.20
2017-05-29T04:54:44.096Z,57.40
2017-05-29T04:57:12.395Z,57.10
2017-05-29T04:59:40.739Z,57.10
2017-05-29T05:02:09.038Z,59.50
2017-05-29T05:04:37.338Z,59.40
2017-05-29T05:07:05.674Z,59.00
2017-05-29T05:09:33.992Z,61.00
2017-05-29T05:12:02.277Z,61.30
2017-05-29T05:14:30.617Z,61.10
2017-05-29T05:16:58.901Z,61.90
2017-05-29T05:19:27.190Z,60.00
2017-05-29T05:21:55.908Z,61.00
2017-05-29T05:24:24.201Z,54.50
2017-05-29T05:26:52.492Z,53.50
2017-05-29T05:29:20.824Z,54.50
2017-05-29T05:31:49.118Z,54.50
2017-05-29T05:34:17.410Z,52.00
2017-05-29T05:36:45.752Z,52.60
2017-05-29T05:39:14.086Z,53.30
2017-05-29T05:41:42.377Z,51.40
2017-05-29T05:44:10.703Z,51.20
2017-05-29T05:46:38.988Z,52.30
2017-05-29T05:49:07.277Z,50.90
2017-05-29T05:51:35.609Z,50.20
2017-05-29T05:54:03.893Z,49.50
2017-05-29T05:56:32.181Z,50.40
2017-05-29T05:59:00.510Z,53.10
2017-05-29T06:01:28.801Z,53.90
2017-05-29T06:03:57.105Z,51.80
2017-05-29T06:06:25.435Z,51.10
2017-05-29T06:08:53.732Z,50.70
2017-05-29T06:11:22.056Z,50.90
2017-05-29T06:13:50.364Z,52.40
2017-05-29T06:16:18.724Z,52.70
2017-05-29T06:18:47.013Z,52.00
2017-05-29T06:21:15.302Z,51.50
2017-05-29T06:23:43.643Z,51.80
2017-05-29T06:26:11.936Z,52.20
2017-05-29T06:28:40.316Z,51.10
2017-05-29T06:31:08.666Z,48.50
2017-05-29T06:33:36.956Z,49.00
2017-05-29T06:36:05.241Z,49.30
2017-05-29T06:38:33.595Z,49.90
2017-05-29T06:41:01.888Z,50.60
2017-05-29T06:43:30.177Z,49.50
2017-05-29T06:45:57.736Z,49.50
2017-05-29T06:48:26.030Z,50.70
2017-05-29T06:50:54.329Z,51.40
2017-05-29T06:53:22.987Z,48.90
2017-05-29T06:55:51.268Z,49.60
2017-05-29T06:58:19.563Z,50.30
2017-05-29T07:00:47.896Z,48.10
2017-05-29T07:03:16.184Z,48.70
2017-05-29T07:05:44.459Z,46.70
2017-05-29T07:08:12.010Z,46.60
2017-05-29T07:10:40.300Z,47.40
2017-05-29T07:13:08.633Z,48.30
2017-05-29T07:15:36.152Z,48.20
2017-05-29T07:18:04.436Z,46.30
2017-05-29T07:20:32.785Z,46.00
2017-05-29T07:23:01.073Z,46.70
2017-05-29T07:25:29.412Z,48.40
2017-05-29T07:27:57.801Z,47.20
2017-05-29T07:30:26.086Z,44.20
2017-05-29T07:32:54.373Z,43.80
2017-05-29T07:35:22.700Z,45.80
2017-05-29T07:37:51.136Z,43.50
2017-05-29T07:40:19.424Z,43.40
2017-05-29T07:42:47.776Z,41.70
2017-05-29T07:45:16.065Z,42.50
2017-05-29T07:47:44.356Z,42.50
2017-05-29T07:50:12.693Z,44.10
2017-05-29T07:52:40.987Z,40.70
2017-05-29T07:55:09.353Z,40.60
2017-05-29T07:57:37.708Z,38.60
2017-05-29T08:00:06.003Z,39.40
2017-05-29T08:02:34.279Z,41.40
2017-05-29T08:05:02.628Z,41.10
2017-05-29T08:07:31.156Z,39.80
2017-05-29T08:09:59.484Z,37.00
2017-05-29T08:12:27.897Z,35.70
2017-05-29T08:14:56.320Z,35.80
2017-05-29T08:17:24.720Z,35.90
2017-05-29T08:19:53.301Z,37.80
2017-05-29T08:22:21.585Z,38.60
2017-05-29T08:24:49.876Z,35.70
2017-05-29T08:27:18.289Z,31.80
2017-05-29T08:29:46.580Z,37.40
2017-05-29T08:32:14.996Z,33.60
2017-05-29T08:34:43.441Z,35.00
2017-05-29T08:37:11.924Z,34.70
2017-05-29T08:39:40.269Z,33.90
2017-05-29T08:42:08.692Z,34.50
2017-05-29T08:44:36.989Z,32.60
2017-05-29T08:47:05.320Z,31.40
2017-05-29T08:49:33.629Z,32.20
2017-05-29T08:52:02.170Z,35.40
2017-05-29T08:54:30.632Z,32.60
2017-05-29T08:56:59.045Z,32.80
2017-05-29T08:59:27.373Z,31.70
2017-05-29T09:01:55.731Z,33.60
2017-05-29T09:04:24.128Z,33.30
2017-05-29T09:06:52.492Z,33.10
2017-05-29T09:09:20.961Z,35.10
2017-05-29T09:11:49.249Z,33.40
2017-05-29T09:14:17.584Z,31.60
2017-05-29T09:16:45.104Z,31.60
2017-05-29T09:19:13.643Z,33.80
2017-05-29T09:21:41.964Z,35.20
2017-05-29T09:24:10.332Z,36.20
2017-05-29T09:26:38.692Z,35.20
2017-05-29T09:29:06.281Z,35.20
2017-05-29T09:31:34.701Z,36.00
2017-05-29T09:34:02.985Z,34.80
2017-05-29T09:36:31.460Z,32.30
2017-05-29T09:38:59.853Z,33.40
2017-05-29T09:41:28.245Z,29.70
2017-05-29T09:43:56.685Z,32.60
2017-05-29T09:46:25.029Z,34.10
2017-05-29T09:48:53.329Z,35.00
2017-05-29T09:51:21.652Z,32.60
2017-05-29T09:53:50.160Z,29.60
2017-05-29T09:56:18.441Z,29.80
2017-05-29T09:58:46.979Z,32.90
2017-05-29T10:01:15.260Z,33.10
2017-05-29T10:03:43.540Z,31.80
2017-05-29T10:06:11.879Z,32.60
2017-05-29T10:08:40.354Z,30.60
2017-05-29T10:11:08.636Z,29.10
2017-05-29T10:13:36.969Z,32.60
2017-05-29T10:16:05.256Z,31.80
2017-05-29T10:18:33.845Z,32.20
2017-05-29T10:21:02.172Z,32.90
2017-05-29T10:23:30.528Z,32.20
2017-05-29T10:25:58.833Z,27.60
2017-05-29T10:28:27.159Z,27.10
2017-05-29T10:30:55.446Z,27.80
2017-05-29T10:33:23.845Z,26.10
2017-05-29T10:35:52.123Z,28.20
2017-05-29T10:38:20.432Z,28.10
2017-05-29T10:40:48.776Z,27.50
2017-05-29T10:43:17.251Z,29.80
2017-05-29T10:45:45.536Z,26.90
2017-05-29T10:48:13.856Z,26.50
2017-05-29T10:50:42.143Z,28.40
2017-05-29T10:53:10.433Z,27.60
2017-05-29T10:55:38.864Z,30.50
2017-05-29T10:58:07.270Z,26.00
2017-05-29T11:00:35.570Z,26.60
2017-05-29T11:03:03.893Z,26.70
2017-05-29T11:05:32.363Z,26.60
2017-05-29T11:08:00.779Z,29.20
2017-05-29T11:10:29.071Z,28.00
2017-05-29T11:12:57.372Z,27.50
2017-05-29T11:15:25.717Z,28.80
2017-05-29T11:17:54.012Z,28.00
2017-05-29T11:20:22.308Z,30.80
2017-05-29T11:22:50.848Z,28.40
2017-05-29T11:25:19.164Z,28.40
2017-05-29T11:27:47.500Z,28.00
2017-05-29T11:30:15.896Z,29.50
2017-05-29T11:32:44.178Z,30.90
2017-05-29T11:35:12.523Z,30.30
2017-05-29T11:37:40.921Z,30.50
2017-05-29T11:40:09.218Z,30.40
2017-05-29T11:42:37.500Z,29.50
2017-05-29T11:45:05.845Z,29.70
2017-05-29T11:47:34.131Z,26.70
2017-05-29T11:50:02.408Z,28.50
2017-05-29T11:52:30.732Z,25.20
2017-05-29T11:54:59.021Z,29.00
2017-05-29T11:57:27.308Z,28.60
2017-05-29T11:59:55.736Z,26.30
2017-05-29T12:02:24.016Z,25.10
2017-05-29T12:04:52.304Z,27.80
2017-05-29T12:07:20.629Z,28.30
2017-05-29T12:09:48.921Z,27.40
2017-05-29T12:12:17.208Z,27.00
2017-05-29T12:14:45.549Z,25.10
2017-05-29T12:17:13.833Z,27.20
2017-05-29T12:19:42.117Z,27.20
2017-05-29T12:22:10.453Z,27.60
2017-05-29T12:24:38.743Z,29.80
2017-05-29T12:27:07.028Z,27.80
2017-05-29T12:29:35.357Z,26.70
2017-05-29T12:32:03.658Z,25.80
2017-05-29T12:34:31.940Z,27.80
2017-05-29T12:37:00.270Z,29.20
2017-05-29T12:39:28.563Z,25.90
2017-05-29T12:41:56.892Z,26.80
2017-05-29T12:44:25.187Z,27.80
2017-05-29T12:46:53.479Z,26.00
2017-05-29T12:49:21.868Z,27.50
2017-05-29T12:51:50.164Z,29.10
2017-05-29T12:54:18.508Z,28.90
2017-05-29T12:56:46.876Z,31.00
2017-05-29T12:59:15.168Z,30.50
2017-05-29T13:01:43.777Z,27.30
2017-05-29T13:04:12.109Z,27.40
2017-05-29T13:06:40.394Z,27.90
2017-05-29T13:09:08.740Z,29.30
2017-05-29T13:11:37.087Z,29.10
2017-05-29T13:14:05.373Z,27.70
2017-05-29T13:16:33.691Z,27.60
2017-05-29T13:19:02.033Z,29.20
2017-05-29T13:21:30.431Z,29.70
2017-05-29T13:23:58.717Z,30.20
2017-05-29T13:26:27.044Z,30.20
2017-05-29T13:28:55.332Z,29.30
2017-05-29T13:31:23.620Z,29.70
2017-05-29T13:33:51.957Z,28.70
2017-05-29T13:36:20.336Z,28.40
2017-05-29T13:38:48.628Z,29.10
2017-05-29T13:41:16.956Z,29.20
2017-05-29T13:43:45.244Z,30.70
2017-05-29T13:46:14.052Z,29.90
2017-05-29T13:48:42.380Z,29.00
2017-05-29T13:51:10.672Z,28.60
2017-05-29T13:53:38.952Z,30.00
2017-05-29T13:56:07.272Z,28.70
2017-05-29T13:58:35.557Z,30.10
2017-05-29T14:01:03.896Z,28.50
2017-05-29T14:03:32.264Z,29.20
2017-05-29T14:06:00.552Z,28.80
2017-05-29T14:08:28.836Z,31.10
2017-05-29T14:10:57.336Z,29.30
2017-05-29T14:13:25.621Z,29.40
2017-05-29T14:15:53.988Z,28.80
2017-05-29T14:18:22.369Z,28.70
2017-05-29T14:20:50.728Z,29.30
2017-05-29T14:23:19.097Z,30.90
2017-05-29T14:25:47.568Z,31.20
2017-05-29T14:28:15.853Z,29.40
2017-05-29T14:30:44.158Z,30.10
2017-05-29T14:33:12.618Z,29.60
2017-05-29T14:35:41.591Z,30.00
2017-05-29T14:38:09.879Z,28.80
2017-05-29T14:40:38.353Z,30.20
2017-05-29T14:43:06.753Z,30.60
2017-05-29T14:45:35.040Z,31.40
2017-05-29T14:48:04.325Z,29.90
2017-05-29T14:50:32.855Z,30.40
2017-05-29T14:53:01.745Z,31.10
2017-05-29T14:55:30.080Z,29.60
2017-05-29T14:57:58.434Z,29.20
2017-05-29T15:00:26.724Z,30.80
2017-05-29T15:02:55.104Z,30.30
2017-05-29T15:05:23.484Z,29.50
2017-05-29T15:07:51.828Z,30.20
2017-05-29T15:10:20.185Z,29.50
2017-05-29T15:12:48.477Z,29.20
2017-05-29T15:15:16.760Z,31.20
2017-05-29T15:17:45.100Z,29.70
2017-05-29T15:20:15.200Z,29.60
2017-05-29T15:22:43.499Z,30.00
2017-05-29T15:25:11.825Z,30.40
2017-05-29T15:27:40.114Z,30.00
2017-05-29T15:30:08.997Z,30.60
2017-05-29T15:32:37.470Z,32.60
2017-05-29T15:35:05.760Z,30.50
2017-05-29T15:37:34.046Z,30.80
2017-05-29T15:40:02.460Z,30.80
2017-05-29T15:42:31.299Z,31.40
2017-05-29T15:44:59.770Z,31.90
2017-05-29T15:47:28.281Z,31.10
2017-05-29T15:49:56.669Z,29.90
2017-05-29T15:52:25.032Z,31.10
2017-05-29T15:54:53.563Z,31.00
2017-05-29T15:57:21.951Z,31.80
2017-05-29T15:59:50.245Z,31.30
2017-05-29T16:02:18.672Z,32.80
2017-05-29T16:04:46.961Z,32.20
2017-05-29T16:07:15.255Z,31.20
2017-05-29T16:09:43.653Z,30.10
2017-05-29T16:12:11.960Z,31.20
2017-05-29T16:14:40.552Z,30.80
2017-05-29T16:17:08.976Z,31.10
2017-05-29T16:19:37.260Z,30.80
2017-05-29T16:22:05.552Z,31.20
2017-05-29T16:24:34.149Z,31.00
2017-05-29T16:27:02.436Z,31.20
2017-05-29T16:29:30.737Z,32.40
2017-05-29T16:31:59.686Z,32.80
2017-05-29T16:34:28.041Z,32.60
2017-05-29T16:36:56.340Z,32.00
2017-05-29T16:39:24.733Z,32.70
2017-05-29T16:41:53.055Z,31.80
2017-05-29T16:44:21.437Z,33.40
2017-05-29T16:46:49.764Z,34.20
2017-05-29T16:49:18.064Z,32.90
2017-05-29T16:51:46.357Z,33.00
2017-05-29T16:54:14.684Z,31.70
2017-05-29T16:56:43.554Z,33.00
2017-05-29T16:59:11.861Z,33.00
2017-05-29T17:01:40.277Z,34.10
2017-05-29T17:04:08.576Z,32.80
2017-05-29T17:06:36.872Z,31.70
2017-05-29T17:09:05.211Z,32.00
2017-05-29T17:11:33.501Z,33.30
2017-05-29T17:14:01.824Z,33.70
2017-05-29T17:16:30.158Z,32.80
2017-05-29T17:18:58.452Z,32.10
2017-05-29T17:21:30.831Z,31.10
2017-05-29T17:23:59.207Z,31.40
2017-05-29T17:26:27.542Z,32.80
2017-05-29T17:28:55.904Z,31.70
2017-05-29T17:31:24.207Z,31.90
2017-05-29T17:33:52.506Z,32.10
2017-05-29T17:36:20.867Z,32.90
2017-05-29T17:38:49.224Z,32.70
2017-05-29T17:41:17.585Z,32.50
2017-05-29T17:43:46.050Z,33.00
2017-05-29T17:46:14.457Z,33.50
2017-05-29T17:48:42.785Z,33.90
2017-05-29T17:51:11.156Z,33.50
2017-05-29T17:53:39.501Z,33.10
2017-05-29T17:56:07.834Z,33.50
2017-05-29T17:58:36.244Z,33.00
2017-05-29T18:01:04.585Z,32.50
2017-05-29T18:03:32.918Z,33.30
2017-05-29T18:06:01.382Z,33.30
2017-05-29T18:08:29.736Z,33.70
2017-05-29T18:10:58.036Z,33.50
2017-05-29T18:13:26.361Z,34.20
2017-05-29T18:15:54.650Z,34.40
2017-05-29T18:18:22.944Z,34.60
2017-05-29T18:20:51.268Z,34.70
2017-05-29T18:23:19.553Z,34.20
2017-05-29T18:25:47.846Z,34.50
2017-05-29T18:28:16.219Z,34.60
2017-05-29T18:30:44.521Z,34.70
2017-05-29T18:33:12.823Z,35.90
2017-05-29T18:35:41.662Z,35.90
2017-05-29T18:38:09.948Z,38.30
2017-05-29T18:40:38.236Z,36.90
2017-05-29T18:43:06.568Z,41.10
2017-05-29T18:45:34.860Z,42.20
2017-05-29T18:48:03.153Z,43.00
2017-05-29T18:50:31.505Z,43.90
2017-05-29T18:52:59.801Z,44.80
2017-05-29T18:55:28.086Z,45.00
2017-05-29T18:57:56.426Z,45.10
2017-05-29T19:00:24.720Z,46.10
2017-05-29T19:02:52.239Z,46.00
2017-05-29T19:05:20.562Z,46.10
2017-05-29T19:07:48.853Z,45.80
2017-05-29T19:10:17.482Z,47.40
2017-05-29T19:12:45.791Z,50.30
2017-05-29T19:15:14.095Z,48.40
2017-05-29T19:17:42.432Z,48.60
2017-05-29T19:20:10.739Z,49.00
2017-05-29T19:22:39.029Z,47.90
2017-05-29T19:25:07.648Z,48.70
2017-05-29T19:27:35.184Z,48.60
2017-05-29T19:30:03.476Z,48.20
2017-05-29T19:32:31.829Z,48.70
2017-05-29T19:35:00.118Z,48.90
2017-05-29T19:37:28.413Z,48.60
2017-05-29T19:39:56.754Z,47.80
2017-05-29T19:42:25.053Z,48.50
2017-05-29T19:44:53.423Z,48.70
2017-05-29T19:47:21.836Z,49.40
2017-05-29T19:49:50.231Z,49.00
2017-05-29T19:52:18.557Z,48.90
2017-05-29T19:54:46.890Z,48.80
2017-05-29T19:57:15.192Z,50.60
2017-05-29T19:59:43.482Z,49.70
2017-05-29T20:02:11.837Z,49.60
2017-05-29T20:04:40.264Z,49.20
2017-05-29T20:07:08.659Z,48.80
2017-05-29T20:09:37.147Z,48.90
2017-05-29T20:12:05.466Z,49.40
2017-05-29T20:14:33.965Z,50.20
2017-05-29T20:17:02.347Z,49.70
2017-05-29T20:19:30.648Z,49.10
2017-05-29T20:21:59.276Z,48.60
2017-05-29T20:24:27.622Z,47.30
2017-05-29T20:26:56.056Z,48.00
2017-05-29T20:29:23.577Z,48.00
2017-05-29T20:31:51.960Z,47.80
2017-05-29T20:34:20.477Z,48.60
2017-05-29T20:36:48.960Z,48.60
2017-05-29T20:39:17.381Z,49.10
2017-05-29T20:41:46.037Z,47.90
2017-05-29T20:44:14.324Z,47.70
2017-05-29T20:46:41.954Z,47.60
2017-05-29T20:49:10.797Z,49.00
2017-05-29T20:51:39.257Z,49.00
2017-05-29T20:54:07.536Z,49.00
2017-05-29T20:56:35.884Z,48.60
2017-05-29T20:59:04.171Z,48.90
2017-05-29T21:01:32.681Z,48.40
2017-05-29T21:04:01.028Z,48.00
2017-05-29T21:06:29.444Z,49.40
2017-05-29T21:08:57.876Z,49.00
2017-05-29T21:11:26.283Z,47.10
2017-05-29T21:13:54.588Z,47.80
2017-05-29T21:16:22.881Z,48.30
2017-05-29T21:18:51.291Z,49.20
2017-05-29T21:21:19.613Z,48.70
2017-05-29T21:23:47.938Z,48.30
2017-05-29T21:26:15.613Z,48.40
2017-05-29T21:28:44.015Z,49.40
2017-05-29T21:31:12.310Z,47.90
2017-05-29T21:33:40.656Z,48.90
2017-05-29T21:36:08.962Z,49.20
2017-05-29T21:38:37.257Z,48.30
2017-05-29T21:41:05.657Z,48.40
2017-05-29T21:43:33.944Z,47.90
2017-05-29T21:46:02.249Z,48.10
2017-05-29T21:48:30.908Z,49.50
2017-05-29T21:50:59.189Z,47.80
2017-05-29T21:53:27.625Z,48.60
2017-05-29T21:55:55.957Z,50.10
2017-05-29T21:58:24.309Z,49.80
2017-05-29T22:00:52.600Z,49.30
2017-05-29T22:03:21.082Z,48.40
2017-05-29T22:05:49.369Z,48.80
2017-05-29T22:08:16.956Z,48.80
2017-05-29T22:10:45.317Z,47.00
2017-05-29T22:13:13.659Z,47.60
2017-05-29T22:15:42.009Z,48.20
2017-05-29T22:18:10.358Z,48.40
2017-05-29T22:20:38.958Z,48.90
2017-05-29T22:23:07.269Z,50.50
2017-05-29T22:25:35.686Z,50.60
2017-05-29T22:28:03.985Z,49.80
2017-05-29T22:30:32.447Z,50.10
2017-05-29T22:33:01.570Z,48.70
2017-05-29T22:35:29.914Z,46.40
2017-05-29T22:37:58.265Z,47.50
2017-05-29T22:40:26.572Z,46.80
2017-05-29T22:42:54.933Z,46.40
2017-05-29T22:45:23.310Z,47.50
2017-05-29T22:47:51.657Z,50.00
2017-05-29T22:50:19.949Z,46.20
2017-05-29T22:52:48.551Z,47.00
2017-05-29T22:55:16.846Z,48.00
2017-05-29T22:57:45.252Z,49.50
2017-05-29T23:00:13.615Z,47.70
2017-05-29T23:02:42.188Z,48.30
2017-05-29T23:05:10.488Z,48.50
2017-05-29T23:07:38.958Z,49.40
2017-05-29T23:10:07.364Z,50.50
2017-05-29T23:12:35.657Z,48.30
2017-05-29T23:15:04.020Z,47.50
2017-05-29T23:17:32.422Z,46.50
2017-05-29T23:20:00.713Z,47.60
2017-05-29T23:22:29.188Z,48.60
2017-05-29T23:24:57.657Z,47.60
2017-05-29T23:27:26.120Z,48.20
2017-05-29T23:29:54.468Z,49.20
2017-05-29T23:32:22.980Z,50.30
2017-05-29T23:34:51.285Z,52.10
2017-05-29T23:37:19.672Z,52.50
2017-05-29T23:39:48.121Z,52.30
2017-05-29T23:42:16.540Z,51.70
2017-05-29T23:44:44.952Z,50.60
2017-05-29T23:47:13.366Z,52.20
2017-05-29T23:49:41.830Z,49.60
2017-05-29T23:52:10.252Z,51.80
2017-05-29T23:54:38.626Z,51.60
2017-05-29T23:57:07.005Z,49.60
2017-05-29T23:59:35.303Z,50.60
